Time;durP1;ratioP1;P1;durP2;ratioP2;P2;SDS_P1;SDS_P2;PMS_P1;PMS_P2;Temp;Humidity;BMP_temperature;BMP_pressure;BME280_temperature;BME280_humidity;BME280_pressure;Samples;Min_cycle;Max_cycle;Signal;HPM_P1;HPM_P2
2021/01/01 00:02:19;;;;;;;10.55;6.82;;;3.00;99.90;;;;;;4984838;28;20102;-82
2021/01/01 00:04:45;;;;;;;12.05;6.72;;;3.10;99.90;;;;;;4985720;28;20516;-83
2021/01/01 00:07:10;;;;;;;17.45;9.10;;;3.10;99.90;;;;;;4983752;28;20046;-82
2021/01/01 00:09:36;;;;;;;14.88;7.25;;;3.10;99.90;;;;;;4986187;28;20057;-82
2021/01/01 00:12:02;;;;;;;16.80;8.05;;;3.20;99.90;;;;;;4982170;28;20045;-83
2021/01/01 00:14:27;;;;;;;16.08;7.55;;;3.20;99.90;;;;;;4982349;28;20038;-82
2021/01/01 00:16:53;;;;;;;15.23;7.82;;;3.20;99.90;;;;;;4982108;28;20046;-83
2021/01/01 00:19:18;;;;;;;14.73;7.70;;;3.30;99.90;;;;;;5011463;28;20466;-82
2021/01/01 00:21:44;;;;;;;18.95;8.30;;;3.30;99.90;;;;;;4980921;28;20045;-83
2021/01/01 00:24:10;;;;;;;18.50;8.27;;;3.40;99.90;;;;;;4983614;28;20042;-83
2021/01/01 00:26:35;;;;;;;16.20;8.15;;;3.40;99.90;;;;;;4980068;28;20139;-83
2021/01/01 00:29:01;;;;;;;14.10;6.95;;;3.40;99.90;;;;;;5012568;28;20035;-82
2021/01/01 00:31:27;;;;;;;18.40;8.77;;;3.40;99.90;;;;;;4981776;28;20772;-85
2021/01/01 00:33:53;;;;;;;22.02;8.95;;;3.40;99.90;;;;;;4982707;28;20102;-83
2021/01/01 00:36:20;;;;;;;21.98;10.85;;;3.40;99.90;;;;;;4994588;28;20094;-83
2021/01/01 00:38:51;;;;;;;17.15;8.65;;;3.40;99.90;;;;;;4975351;28;20031;-82
2021/01/01 00:41:29;;;;;;;15.95;7.60;;;3.50;99.90;;;;;;4975672;28;20170;-82
2021/01/01 00:43:56;;;;;;;17.25;8.43;;;3.50;99.90;;;;;;5008193;28;20089;-82
2021/01/01 00:46:23;;;;;;;15.43;7.65;;;3.50;99.90;;;;;;4974432;28;20358;-82
2021/01/01 00:48:48;;;;;;;16.95;8.30;;;3.50;99.90;;;;;;5014391;28;20034;-83
2021/01/01 00:51:14;;;;;;;18.08;8.68;;;3.60;99.90;;;;;;4982104;28;20064;-82
2021/01/01 00:53:39;;;;;;;18.98;8.93;;;3.60;99.90;;;;;;4982097;28;20066;-81
2021/01/01 00:56:05;;;;;;;18.02;8.60;;;3.60;99.90;;;;;;4982998;28;20031;-83
2021/01/01 00:58:31;;;;;;;19.00;9.43;;;3.60;99.90;;;;;;4974327;28;20118;-82
2021/01/01 01:00:57;;;;;;;20.02;9.90;;;3.60;99.90;;;;;;4981520;28;20139;-83
2021/01/01 01:03:22;;;;;;;22.70;9.68;;;3.50;99.90;;;;;;5012825;28;20054;-82
2021/01/01 01:05:48;;;;;;;18.58;9.07;;;3.50;99.90;;;;;;4972736;28;20031;-81
2021/01/01 01:08:13;;;;;;;20.00;9.82;;;3.50;99.90;;;;;;4973819;28;20615;-82
2021/01/01 01:10:39;;;;;;;16.20;8.88;;;3.50;99.90;;;;;;4976971;28;20031;-81
2021/01/01 01:13:04;;;;;;;16.90;8.52;;;3.50;99.90;;;;;;4982427;28;20061;-81
2021/01/01 01:15:30;;;;;;;16.83;9.40;;;3.50;99.90;;;;;;4979976;28;20042;-81
2021/01/01 01:17:55;;;;;;;18.33;9.10;;;3.60;99.90;;;;;;4983944;28;20038;-80
2021/01/01 01:20:21;;;;;;;19.45;8.45;;;3.60;99.90;;;;;;4986440;28;20862;-82
2021/01/01 01:22:46;;;;;;;16.55;8.85;;;3.60;99.90;;;;;;4979984;28;20043;-81
2021/01/01 01:25:12;;;;;;;16.55;8.88;;;3.70;99.90;;;;;;5013578;28;20030;-82
2021/01/01 01:27:38;;;;;;;18.67;9.63;;;3.70;99.90;;;;;;4992032;28;20023;-82
2021/01/01 01:30:04;;;;;;;18.88;9.30;;;3.70;99.90;;;;;;4979232;28;20046;-82
2021/01/01 01:32:30;;;;;;;21.15;10.27;;;3.70;99.90;;;;;;4980327;28;20061;-82
2021/01/01 01:34:55;;;;;;;17.33;8.25;;;3.70;99.90;;;;;;4980290;28;20045;-82
2021/01/01 01:37:21;;;;;;;17.83;9.48;;;3.70;99.90;;;;;;4977723;28;20771;-82
2021/01/01 01:39:46;;;;;;;18.13;8.80;;;3.70;99.90;;;;;;4982610;28;20862;-82
2021/01/01 01:42:12;;;;;;;16.98;7.65;;;3.70;99.90;;;;;;4981039;28;20039;-82
2021/01/01 01:44:38;;;;;;;16.70;8.55;;;3.80;99.90;;;;;;4977787;28;20039;-84
2021/01/01 01:47:04;;;;;;;16.90;8.20;;;3.70;99.90;;;;;;4978797;28;20097;-82
2021/01/01 01:49:30;;;;;;;14.20;7.80;;;3.70;99.90;;;;;;4978992;28;20038;-82
2021/01/01 01:51:56;;;;;;;13.73;7.85;;;3.70;99.90;;;;;;4980910;28;20042;-82
2021/01/01 01:54:22;;;;;;;19.60;9.07;;;3.70;99.90;;;;;;4980839;28;20034;-82
2021/01/01 01:56:48;;;;;;;14.00;7.82;;;3.80;99.90;;;;;;4978576;28;20050;-82
2021/01/01 01:59:16;;;;;;;23.02;9.40;;;3.80;99.90;;;;;;4982793;28;20467;-81
2021/01/01 02:01:42;;;;;;;18.02;9.15;;;3.80;99.90;;;;;;4995232;28;20331;-82
2021/01/01 02:04:08;;;;;;;18.75;9.10;;;3.80;99.90;;;;;;4996916;28;20034;-82
2021/01/01 02:06:33;;;;;;;17.33;9.40;;;3.80;99.90;;;;;;4994180;28;20230;-81
2021/01/01 02:09:01;;;;;;;19.27;8.82;;;3.90;99.90;;;;;;4994990;28;20063;-80
2021/01/01 02:11:27;;;;;;;16.13;8.60;;;3.90;99.90;;;;;;4997137;28;20034;-82
2021/01/01 02:13:56;;;;;;;14.52;8.20;;;3.90;99.90;;;;;;4995983;28;20034;-82
2021/01/01 02:16:23;;;;;;;15.43;9.00;;;3.90;99.90;;;;;;4999583;28;20043;-83
2021/01/01 02:18:48;;;;;;;18.75;10.52;;;3.90;99.90;;;;;;5028393;28;20042;-83
2021/01/01 02:21:16;;;;;;;20.17;9.10;;;3.90;99.90;;;;;;4995220;28;20058;-82
2021/01/01 02:23:42;;;;;;;18.20;9.00;;;3.90;99.90;;;;;;5000373;28;20042;-82
2021/01/01 02:26:08;;;;;;;20.52;8.98;;;3.90;99.90;;;;;;4999639;28;20022;-82
2021/01/01 02:28:34;;;;;;;20.08;9.43;;;3.90;99.90;;;;;;4999470;28;20037;-82
2021/01/01 02:30:59;;;;;;;19.58;9.27;;;3.90;99.90;;;;;;4998426;28;20054;-82
2021/01/01 02:33:25;;;;;;;18.77;8.95;;;3.90;99.90;;;;;;4998620;28;20066;-82
2021/01/01 02:35:51;;;;;;;20.70;9.77;;;3.90;99.90;;;;;;5000179;28;20287;-83
2021/01/01 02:38:17;;;;;;;19.83;9.73;;;3.90;99.90;;;;;;5001354;28;20026;-82
2021/01/01 02:40:42;;;;;;;16.33;8.85;;;3.90;99.90;;;;;;4998354;28;20042;-83
2021/01/01 02:43:08;;;;;;;20.10;10.05;;;3.90;99.90;;;;;;4985059;28;20571;-83
2021/01/01 02:45:34;;;;;;;16.40;8.82;;;3.90;99.90;;;;;;4987735;28;20046;-83
2021/01/01 02:48:14;;;;;;;16.23;8.57;;;3.90;99.90;;;;;;4986321;28;20122;-83
2021/01/01 02:50:40;;;;;;;17.58;9.18;;;3.90;99.90;;;;;;4983376;28;20031;-83
2021/01/01 02:53:06;;;;;;;20.40;10.35;;;3.90;99.90;;;;;;4998085;28;20027;-82
2021/01/01 02:55:32;;;;;;;21.70;10.23;;;3.90;99.90;;;;;;4979656;28;20041;-83
2021/01/01 02:57:59;;;;;;;23.42;10.55;;;3.90;99.90;;;;;;4981105;28;20129;-83
2021/01/01 03:00:24;;;;;;;20.80;9.80;;;3.90;99.90;;;;;;4983587;28;20738;-83
2021/01/01 03:02:50;;;;;;;26.80;10.43;;;3.90;99.90;;;;;;4980514;28;20035;-83
2021/01/01 03:05:15;;;;;;;20.02;9.38;;;3.90;99.90;;;;;;4979737;28;20433;-82
2021/01/01 03:07:41;;;;;;;19.95;9.38;;;4.00;99.90;;;;;;4976532;28;20480;-83
2021/01/01 03:10:07;;;;;;;25.48;10.45;;;3.90;99.90;;;;;;4982603;28;20038;-83
2021/01/01 03:12:33;;;;;;;19.52;10.40;;;3.90;99.90;;;;;;4991094;28;20049;-83
2021/01/01 03:14:58;;;;;;;22.40;10.60;;;3.90;99.90;;;;;;4979108;28;20697;-84
2021/01/01 03:17:24;;;;;;;20.20;9.95;;;3.90;99.90;;;;;;4980949;28;20035;-83
2021/01/01 03:19:49;;;;;;;18.35;9.32;;;3.90;99.90;;;;;;4981158;28;20062;-83
2021/01/01 03:22:15;;;;;;;20.20;10.38;;;3.90;99.90;;;;;;4985722;28;20102;-83
2021/01/01 03:24:40;;;;;;;19.80;10.60;;;3.90;99.90;;;;;;4991419;28;20054;-83
2021/01/01 03:27:06;;;;;;;25.05;11.88;;;3.80;99.90;;;;;;4988255;28;20056;-83
2021/01/01 03:29:31;;;;;;;23.17;10.75;;;3.70;99.90;;;;;;5019257;28;20057;-82
2021/01/01 03:31:57;;;;;;;20.35;11.15;;;3.70;99.90;;;;;;4988031;28;20069;-83
2021/01/01 03:34:22;;;;;;;22.88;10.85;;;3.70;99.90;;;;;;4984199;28;20046;-82
2021/01/01 03:36:48;;;;;;;23.30;11.73;;;3.70;99.90;;;;;;4981720;28;20047;-82
2021/01/01 03:39:13;;;;;;;21.17;11.02;;;3.70;99.90;;;;;;4984637;28;20046;-83
2021/01/01 03:41:39;;;;;;;20.40;10.82;;;3.70;99.90;;;;;;4984141;28;20039;-82
2021/01/01 03:44:04;;;;;;;22.85;11.60;;;3.70;99.90;;;;;;4984547;28;20038;-82
2021/01/01 03:46:30;;;;;;;22.58;11.93;;;3.70;99.90;;;;;;4985642;28;20039;-82
2021/01/01 03:48:55;;;;;;;22.67;12.48;;;3.70;99.90;;;;;;4984484;28;20112;-82
2021/01/01 03:51:21;;;;;;;23.52;11.32;;;3.70;99.90;;;;;;4984999;28;20366;-82
2021/01/01 03:53:46;;;;;;;22.17;11.63;;;3.70;99.90;;;;;;5010746;28;20049;-82
2021/01/01 03:56:12;;;;;;;20.35;10.77;;;3.70;99.90;;;;;;4990046;28;20043;-82
2021/01/01 03:58:37;;;;;;;24.10;12.32;;;3.70;99.90;;;;;;4991979;28;20077;-81
2021/01/01 04:01:03;;;;;;;26.95;12.93;;;3.70;99.90;;;;;;4988090;28;20122;-82
2021/01/01 04:03:28;;;;;;;23.20;11.55;;;3.70;99.90;;;;;;4996407;28;20039;-82
2021/01/01 04:05:54;;;;;;;24.27;10.88;;;3.70;99.90;;;;;;4994353;28;20037;-81
2021/01/01 04:08:19;;;;;;;23.52;11.82;;;3.80;99.90;;;;;;4985317;28;20050;-82
2021/01/01 04:10:45;;;;;;;23.10;11.35;;;3.70;99.90;;;;;;4994027;28;20034;-82
2021/01/01 04:13:10;;;;;;;23.42;10.93;;;3.70;99.90;;;;;;4991971;28;20106;-83
2021/01/01 04:15:36;;;;;;;28.00;12.18;;;3.70;99.90;;;;;;4977940;28;20022;-83
2021/01/01 04:18:01;;;;;;;22.65;11.48;;;3.80;99.90;;;;;;4981624;28;20031;-81
2021/01/01 04:20:27;;;;;;;23.40;11.65;;;3.70;99.90;;;;;;4984029;28;20037;-78
2021/01/01 04:22:53;;;;;;;24.73;12.68;;;3.70;99.90;;;;;;4994912;28;20107;-83
2021/01/01 04:25:18;;;;;;;25.63;11.73;;;3.70;99.90;;;;;;4988504;28;20031;-80
2021/01/01 04:27:44;;;;;;;23.55;11.90;;;3.70;99.90;;;;;;4981992;28;20034;-82
2021/01/01 04:30:10;;;;;;;24.73;11.77;;;3.80;99.90;;;;;;4986001;28;20089;-82
2021/01/01 04:32:35;;;;;;;23.13;11.80;;;3.80;99.90;;;;;;4993977;28;20045;-83
2021/01/01 04:35:01;;;;;;;25.50;12.02;;;3.80;99.90;;;;;;4988017;28;20046;-83
2021/01/01 04:37:26;;;;;;;21.23;10.90;;;3.80;99.90;;;;;;4978507;28;20045;-83
2021/01/01 04:39:52;;;;;;;24.42;12.18;;;3.70;99.90;;;;;;4978799;28;20042;-82
2021/01/01 04:42:18;;;;;;;19.80;11.23;;;3.70;99.90;;;;;;4979839;28;20038;-83
2021/01/01 04:44:44;;;;;;;22.55;11.55;;;3.80;99.90;;;;;;4980185;28;20043;-82
2021/01/01 04:47:12;;;;;;;27.17;11.40;;;3.70;99.90;;;;;;4980679;28;20058;-83
2021/01/01 04:49:38;;;;;;;26.30;12.50;;;3.70;99.90;;;;;;4981458;28;20061;-82
2021/01/01 04:52:08;;;;;;;20.98;10.35;;;3.70;99.90;;;;;;4976050;28;20128;-82
2021/01/01 04:54:34;;;;;;;23.13;12.05;;;3.70;99.90;;;;;;4980815;28;20053;-82
2021/01/01 04:56:59;;;;;;;24.73;11.07;;;3.60;99.90;;;;;;4978287;28;20047;-82
2021/01/01 04:59:25;;;;;;;23.70;11.73;;;3.70;99.90;;;;;;4976885;28;20046;-83
2021/01/01 05:01:51;;;;;;;24.88;12.15;;;3.70;99.90;;;;;;4981145;28;20046;-83
2021/01/01 05:04:16;;;;;;;27.38;12.25;;;3.70;99.90;;;;;;4982153;28;20043;-83
2021/01/01 05:06:42;;;;;;;22.15;10.63;;;3.80;99.90;;;;;;4975898;28;20075;-80
2021/01/01 05:09:10;;;;;;;22.70;11.45;;;3.80;99.90;;;;;;4984852;28;20042;-83
2021/01/01 05:11:36;;;;;;;24.48;11.65;;;3.70;99.90;;;;;;4981006;28;20410;-81
2021/01/01 05:14:04;;;;;;;23.17;11.00;;;3.80;99.90;;;;;;4971683;28;20051;-81
2021/01/01 05:16:29;;;;;;;25.55;11.23;;;3.70;99.90;;;;;;4973352;28;20043;-83
2021/01/01 05:18:55;;;;;;;23.15;11.25;;;3.70;99.90;;;;;;5007165;28;20510;-83
2021/01/01 05:21:26;;;;;;;25.65;12.13;;;3.70;99.90;;;;;;5010106;28;20447;-82
2021/01/01 05:23:54;;;;;;;23.25;11.18;;;3.70;99.90;;;;;;4978012;28;20039;-83
2021/01/01 05:26:24;;;;;;;26.63;11.73;;;3.80;99.90;;;;;;4990060;28;20045;-82
2021/01/01 05:28:49;;;;;;;24.27;11.60;;;3.70;99.90;;;;;;4981057;28;20062;-83
2021/01/01 05:31:20;;;;;;;24.95;12.65;;;3.80;99.90;;;;;;4980218;28;20601;-81
2021/01/01 05:34:00;;;;;;;25.45;12.30;;;3.70;99.90;;;;;;4994327;28;20160;-84
2021/01/01 05:36:41;;;;;;;22.50;11.75;;;3.80;99.90;;;;;;4995538;28;20050;-80
2021/01/01 05:39:29;;;;;;;26.65;12.93;;;3.80;99.90;;;;;;4979311;28;20042;-84
2021/01/01 05:41:54;;;;;;;21.75;10.77;;;3.70;99.90;;;;;;4977678;28;20117;-84
2021/01/01 05:44:28;;;;;;;22.67;11.30;;;3.70;99.90;;;;;;4979553;28;20166;-83
2021/01/01 05:47:00;;;;;;;26.00;11.40;;;3.70;99.90;;;;;;4978854;28;20061;-83
2021/01/01 05:49:31;;;;;;;23.33;10.82;;;3.80;99.90;;;;;;4976941;28;20379;-83
2021/01/01 05:52:05;;;;;;;24.17;11.45;;;3.80;99.90;;;;;;4975785;28;20877;-83
2021/01/01 05:54:32;;;;;;;29.58;12.07;;;3.80;99.90;;;;;;5015648;28;20069;-82
2021/01/01 05:56:58;;;;;;;26.58;12.80;;;3.60;99.90;;;;;;4973210;28;20101;-81
2021/01/01 05:59:26;;;;;;;31.45;12.90;;;3.50;99.90;;;;;;4974252;28;20110;-80
2021/01/01 06:01:56;;;;;;;25.15;11.63;;;3.50;99.90;;;;;;4975945;28;20392;-82
2021/01/01 06:04:26;;;;;;;19.30;10.30;;;3.40;99.90;;;;;;4981108;28;20034;-80
2021/01/01 06:06:55;;;;;;;22.73;9.90;;;3.30;99.90;;;;;;4978688;28;20048;-80
2021/01/01 06:09:21;;;;;;;17.25;9.13;;;3.30;99.90;;;;;;4989655;28;20069;-83
2021/01/01 06:12:10;;;;;;;19.88;9.50;;;3.20;99.90;;;;;;4993213;28;20173;-82
2021/01/01 06:14:40;;;;;;;18.38;9.00;;;3.10;99.90;;;;;;4987349;28;20031;-79
2021/01/01 06:17:08;;;;;;;18.85;8.57;;;3.10;99.90;;;;;;5015464;28;20039;-82
2021/01/01 06:19:44;;;;;;;21.10;8.77;;;3.10;99.90;;;;;;4986995;28;20287;-82
2021/01/01 06:22:16;;;;;;;22.17;8.68;;;3.00;99.90;;;;;;4988635;28;20035;-80
2021/01/01 06:24:47;;;;;;;23.85;9.15;;;3.00;99.90;;;;;;4982758;28;20111;-82
2021/01/01 06:27:14;;;;;;;16.13;8.93;;;2.90;99.90;;;;;;4980654;28;20053;-82
2021/01/01 06:29:43;;;;;;;18.73;9.30;;;2.90;99.90;;;;;;4978164;28;20070;-82
2021/01/01 06:32:09;;;;;;;19.23;8.18;;;2.90;99.90;;;;;;5006773;28;20129;-83
2021/01/01 06:34:35;;;;;;;16.60;8.15;;;2.80;99.90;;;;;;4987039;28;20121;-85
2021/01/01 06:37:01;;;;;;;19.27;7.90;;;2.80;99.90;;;;;;4981511;28;20130;-83
2021/01/01 06:39:37;;;;;;;20.45;9.00;;;2.90;99.90;;;;;;4977505;28;20038;-83
2021/01/01 06:42:04;;;;;;;21.42;9.48;;;2.90;99.90;;;;;;4978432;28;20035;-82
2021/01/01 06:44:40;;;;;;;14.00;7.90;;;2.90;99.90;;;;;;4976047;28;20200;-82
2021/01/01 06:47:10;;;;;;;18.70;8.45;;;2.90;99.90;;;;;;4974283;28;20502;-82
2021/01/01 06:49:38;;;;;;;15.52;7.95;;;2.90;99.90;;;;;;5009679;28;20051;-81
2021/01/01 06:52:10;;;;;;;15.38;8.15;;;2.90;99.90;;;;;;4976278;28;20046;-80
2021/01/01 06:54:55;;;;;;;16.92;8.02;;;2.80;99.90;;;;;;4978296;28;20050;-80
2021/01/01 06:57:28;;;;;;;14.90;7.15;;;2.80;99.90;;;;;;4979340;28;20038;-81
2021/01/01 06:59:56;;;;;;;14.63;7.85;;;2.80;99.90;;;;;;4981360;28;20027;-80
2021/01/01 07:02:26;;;;;;;12.38;7.22;;;2.80;99.90;;;;;;4982678;28;20035;-80
2021/01/01 07:04:52;;;;;;;13.45;7.50;;;2.80;99.90;;;;;;4982102;28;20038;-81
2021/01/01 07:07:40;;;;;;;14.30;7.38;;;2.80;99.90;;;;;;4981662;28;20038;-82
2021/01/01 07:10:08;;;;;;;12.13;6.57;;;2.80;99.90;;;;;;5027738;28;20039;-80
2021/01/01 07:12:34;;;;;;;13.23;6.70;;;2.80;99.90;;;;;;4995821;28;20042;-81
2021/01/01 07:14:59;;;;;;;15.23;7.43;;;2.80;99.90;;;;;;4994378;28;20081;-81
2021/01/01 07:17:25;;;;;;;12.57;7.50;;;2.90;99.90;;;;;;4977053;28;20413;-82
2021/01/01 07:19:51;;;;;;;12.43;6.30;;;2.90;99.90;;;;;;4984447;28;20042;-82
2021/01/01 07:22:16;;;;;;;15.25;7.40;;;2.90;99.90;;;;;;4984486;28;20073;-82
2021/01/01 07:24:45;;;;;;;14.15;7.15;;;2.80;99.90;;;;;;4982172;28;20034;-82
2021/01/01 07:27:12;;;;;;;12.65;6.88;;;2.80;99.90;;;;;;4978521;28;20061;-81
2021/01/01 07:29:37;;;;;;;11.48;6.10;;;2.90;99.90;;;;;;4978399;28;20911;-82
2021/01/01 07:32:04;;;;;;;9.93;5.45;;;2.90;99.90;;;;;;4998721;28;20046;-82
2021/01/01 07:34:29;;;;;;;13.70;6.30;;;2.90;99.90;;;;;;4985680;28;20038;-81
2021/01/01 07:37:00;;;;;;;12.23;6.18;;;2.90;99.90;;;;;;4983269;28;20146;-80
2021/01/01 07:39:29;;;;;;;11.25;6.30;;;2.90;99.90;;;;;;4987718;28;20733;-81
2021/01/01 07:42:06;;;;;;;15.55;7.18;;;2.90;99.90;;;;;;4989632;28;20105;-81
2021/01/01 07:44:32;;;;;;;12.55;6.63;;;2.90;99.90;;;;;;4977943;28;20092;-81
2021/01/01 07:46:57;;;;;;;9.32;5.72;;;2.90;99.90;;;;;;4980209;28;20134;-80
2021/01/01 07:49:30;;;;;;;10.20;5.40;;;2.80;99.90;;;;;;4979070;28;20615;-81
2021/01/01 07:52:03;;;;;;;9.75;5.78;;;2.90;99.90;;;;;;4980319;28;20038;-82
2021/01/01 07:54:28;;;;;;;13.05;6.75;;;2.90;99.90;;;;;;4980455;28;20046;-80
2021/01/01 07:57:04;;;;;;;10.13;5.78;;;2.90;99.90;;;;;;4978604;28;20031;-81
2021/01/01 07:59:32;;;;;;;17.58;6.95;;;2.90;99.90;;;;;;4982789;28;20101;-81
2021/01/01 08:01:58;;;;;;;10.65;5.97;;;3.00;99.90;;;;;;4981134;28;20046;-80
2021/01/01 08:04:23;;;;;;;14.25;6.55;;;3.10;99.90;;;;;;4978481;28;20688;-81
2021/01/01 08:06:54;;;;;;;12.05;6.07;;;3.10;99.90;;;;;;4976030;28;20038;-81
2021/01/01 08:09:19;;;;;;;12.50;6.07;;;3.10;99.90;;;;;;4982037;28;20394;-81
2021/01/01 08:11:45;;;;;;;15.43;7.30;;;3.10;99.90;;;;;;4974082;28;20045;-81
2021/01/01 08:14:10;;;;;;;10.82;6.70;;;3.20;99.90;;;;;;4980774;28;20134;-80
2021/01/01 08:16:36;;;;;;;9.57;5.32;;;3.30;99.90;;;;;;4973730;28;20035;-80
2021/01/01 08:19:01;;;;;;;8.75;5.55;;;3.20;99.90;;;;;;4976133;28;20042;-81
2021/01/01 08:21:27;;;;;;;10.23;4.78;;;3.20;99.90;;;;;;4994005;28;20027;-80
2021/01/01 08:24:08;;;;;;;10.18;4.93;;;3.20;99.90;;;;;;4979808;28;20077;-83
2021/01/01 08:26:35;;;;;;;9.95;5.30;;;3.20;99.90;;;;;;4978195;28;20034;-80
2021/01/01 08:29:05;;;;;;;9.35;4.65;;;3.30;99.90;;;;;;4982170;28;20051;-83
2021/01/01 08:31:31;;;;;;;9.88;5.15;;;3.30;99.90;;;;;;4980249;28;20523;-82
2021/01/01 08:33:57;;;;;;;8.65;4.88;;;3.30;99.90;;;;;;4981498;28;20047;-82
2021/01/01 08:36:33;;;;;;;8.55;4.55;;;3.30;99.90;;;;;;4978696;28;20065;-82
2021/01/01 08:39:10;;;;;;;8.90;4.90;;;3.30;99.90;;;;;;4986269;28;20047;-81
2021/01/01 08:41:44;;;;;;;8.77;5.38;;;3.40;99.90;;;;;;5005016;28;20030;-82
2021/01/01 08:44:11;;;;;;;12.60;5.22;;;3.50;99.90;;;;;;4990737;28;20138;-82
2021/01/01 08:46:37;;;;;;;11.35;5.63;;;3.40;99.90;;;;;;4975705;28;20437;-82
2021/01/01 08:49:15;;;;;;;7.93;4.55;;;3.40;99.90;;;;;;4979958;28;20129;-82
2021/01/01 08:51:41;;;;;;;8.18;4.22;;;3.60;99.90;;;;;;4978838;28;20077;-82
2021/01/01 08:54:07;;;;;;;9.07;4.22;;;3.50;99.90;;;;;;4985725;28;20490;-83
2021/01/01 08:56:33;;;;;;;7.55;4.60;;;3.40;99.90;;;;;;4973628;28;20041;-81
2021/01/01 08:59:08;;;;;;;7.53;4.32;;;3.40;99.90;;;;;;5007301;28;20050;-82
2021/01/01 09:01:34;;;;;;;7.97;4.70;;;3.40;99.90;;;;;;4979452;28;20115;-81
2021/01/01 09:04:02;;;;;;;10.15;5.03;;;3.50;99.90;;;;;;4989022;28;20093;-81
2021/01/01 09:06:28;;;;;;;9.95;5.30;;;3.50;99.90;;;;;;4991544;28;20096;-82
2021/01/01 09:09:05;;;;;;;9.90;5.03;;;3.50;99.90;;;;;;4977540;28;20046;-82
2021/01/01 09:11:30;;;;;;;9.48;4.72;;;3.60;99.90;;;;;;5010688;28;20035;-81
2021/01/01 09:14:03;;;;;;;10.95;4.50;;;3.60;99.90;;;;;;4978942;28;20058;-83
2021/01/01 09:16:29;;;;;;;6.88;3.75;;;3.50;99.90;;;;;;4977432;28;20062;-80
2021/01/01 09:18:55;;;;;;;6.47;3.60;;;3.50;99.90;;;;;;4975903;28;20521;-82
2021/01/01 09:21:20;;;;;;;6.05;3.58;;;3.50;99.90;;;;;;4977901;28;20130;-82
2021/01/01 09:23:53;;;;;;;6.15;3.22;;;3.60;99.90;;;;;;5012810;28;20034;-81
2021/01/01 09:26:29;;;;;;;6.18;3.17;;;3.70;99.90;;;;;;4976207;28;20706;-81
2021/01/01 09:29:14;;;;;;;8.38;3.50;;;3.80;99.90;;;;;;4976130;28;21019;-84
2021/01/01 09:31:44;;;;;;;4.68;2.90;;;3.70;99.90;;;;;;4978095;28;20453;-81
2021/01/01 09:34:10;;;;;;;5.60;2.90;;;3.80;99.90;;;;;;4979179;28;20038;-83
2021/01/01 09:36:38;;;;;;;6.32;3.30;;;3.80;99.90;;;;;;4980541;28;20034;-83
2021/01/01 09:39:09;;;;;;;5.47;3.22;;;3.80;99.90;;;;;;4976513;28;20039;-84
2021/01/01 09:41:38;;;;;;;8.80;4.45;;;3.80;99.90;;;;;;4979815;28;20061;-81
2021/01/01 09:44:05;;;;;;;6.10;3.53;;;3.80;99.90;;;;;;4986475;28;20129;-82
2021/01/01 09:46:31;;;;;;;6.93;3.80;;;3.90;99.90;;;;;;4986980;28;20035;-82
2021/01/01 09:48:57;;;;;;;7.13;4.10;;;4.00;99.90;;;;;;4993691;28;20050;-82
2021/01/01 09:51:22;;;;;;;6.90;3.33;;;3.90;99.90;;;;;;4993213;28;20031;-83
2021/01/01 09:53:48;;;;;;;5.35;3.40;;;4.10;99.90;;;;;;4995944;28;20034;-81
2021/01/01 09:56:13;;;;;;;4.68;2.90;;;4.20;99.90;;;;;;4991204;28;21028;-83
2021/01/01 09:58:39;;;;;;;6.22;3.58;;;4.10;99.90;;;;;;4991488;28;20034;-84
2021/01/01 10:01:05;;;;;;;6.90;2.80;;;4.00;99.90;;;;;;4996444;28;20087;-82
2021/01/01 10:03:30;;;;;;;5.32;3.40;;;4.10;99.90;;;;;;4995944;28;20030;-81
2021/01/01 10:05:56;;;;;;;5.35;3.10;;;4.10;99.90;;;;;;4986836;28;20261;-81
2021/01/01 10:08:21;;;;;;;4.85;3.20;;;4.20;99.90;;;;;;5018279;28;20041;-81
2021/01/01 10:10:47;;;;;;;10.05;4.13;;;4.40;99.90;;;;;;4992314;28;20068;-82
2021/01/01 10:13:13;;;;;;;5.20;3.20;;;4.40;99.90;;;;;;4991777;28;20042;-84
2021/01/01 10:15:39;;;;;;;4.85;2.65;;;4.50;99.90;;;;;;5019783;28;20065;-80
2021/01/01 10:18:05;;;;;;;4.82;2.63;;;4.40;99.90;;;;;;4977782;28;20034;-82
2021/01/01 10:20:31;;;;;;;6.80;3.30;;;4.40;99.90;;;;;;4977922;28;20062;-82
2021/01/01 10:22:56;;;;;;;7.18;3.35;;;4.40;99.90;;;;;;4981440;28;20035;-81
2021/01/01 10:25:22;;;;;;;6.78;3.47;;;4.20;99.90;;;;;;5016805;28;20062;-82
2021/01/01 10:27:47;;;;;;;5.55;2.97;;;4.30;99.90;;;;;;4981949;28;20051;-81
2021/01/01 10:30:13;;;;;;;9.10;3.15;;;4.40;99.90;;;;;;4993183;28;20038;-81
2021/01/01 10:32:39;;;;;;;6.40;3.55;;;4.50;99.90;;;;;;4994124;28;20135;-82
2021/01/01 10:35:05;;;;;;;5.88;3.25;;;4.50;99.90;;;;;;4989264;28;20046;-82
2021/01/01 10:37:30;;;;;;;6.00;3.58;;;4.60;99.90;;;;;;5016255;28;20035;-82
2021/01/01 10:39:56;;;;;;;4.82;2.75;;;4.40;99.90;;;;;;4982949;28;20122;-83
2021/01/01 10:42:25;;;;;;;5.68;3.13;;;4.20;99.90;;;;;;4982830;28;20039;-83
2021/01/01 10:44:50;;;;;;;5.50;2.83;;;4.20;99.90;;;;;;4996344;28;20085;-84
2021/01/01 10:47:16;;;;;;;6.68;3.38;;;4.30;99.90;;;;;;4979997;28;20038;-84
2021/01/01 10:49:41;;;;;;;8.02;3.90;;;4.30;99.90;;;;;;4975121;28;20461;-84
2021/01/01 10:52:07;;;;;;;8.52;3.85;;;4.30;99.90;;;;;;4980896;28;20053;-84
2021/01/01 10:54:32;;;;;;;6.97;3.13;;;4.20;99.90;;;;;;4977766;28;20031;-81
2021/01/01 10:56:58;;;;;;;6.15;3.67;;;4.20;99.90;;;;;;4979345;28;20039;-83
2021/01/01 10:59:24;;;;;;;6.50;3.28;;;4.10;99.90;;;;;;4978725;28;20062;-83
2021/01/01 11:01:59;;;;;;;7.15;3.58;;;4.20;99.90;;;;;;4983320;28;20030;-83
2021/01/01 11:04:25;;;;;;;6.50;3.78;;;4.10;99.90;;;;;;4974667;28;20034;-83
2021/01/01 11:06:50;;;;;;;7.10;3.90;;;4.30;99.90;;;;;;4981911;28;20313;-83
2021/01/01 11:09:16;;;;;;;9.32;4.03;;;4.40;99.90;;;;;;4972530;28;20042;-83
2021/01/01 11:11:42;;;;;;;7.75;3.70;;;4.30;99.90;;;;;;4974496;28;20045;-83
2021/01/01 11:14:13;;;;;;;7.05;4.22;;;4.40;99.90;;;;;;4978815;28;20031;-82
2021/01/01 12:20:52;;;;;;;5.95;3.70;;;4.60;99.60;;;;;;4998148;28;20042;-81
2021/01/01 12:26:04;;;;;;;8.00;4.47;;;4.80;97.90;;;;;;4965996;28;20406;-81
2021/01/01 12:28:30;;;;;;;7.78;5.00;;;4.80;97.30;;;;;;4979507;28;20035;-81
2021/01/01 12:30:57;;;;;;;8.10;4.22;;;4.80;97.30;;;;;;4980280;28;20494;-81
2021/01/01 12:33:23;;;;;;;17.13;8.32;;;4.80;95.10;;;;;;4995747;28;20621;-81
2021/01/01 12:35:49;;;;;;;9.15;5.72;;;4.90;95.30;;;;;;5013598;28;20158;-82
2021/01/01 12:38:15;;;;;;;7.80;4.18;;;5.10;95.70;;;;;;4980529;28;20038;-82
2021/01/01 12:40:40;;;;;;;8.60;4.43;;;5.20;96.50;;;;;;4982148;28;20049;-81
2021/01/01 12:43:06;;;;;;;7.28;4.43;;;5.30;96.10;;;;;;4984221;28;20653;-82
2021/01/01 12:45:32;;;;;;;8.70;4.30;;;5.30;94.20;;;;;;4981300;28;20038;-82
2021/01/01 12:47:58;;;;;;;7.72;3.97;;;4.90;92.00;;;;;;4981570;28;20101;-82
2021/01/01 12:50:24;;;;;;;7.38;4.20;;;4.90;93.30;;;;;;4980207;28;20044;-83
2021/01/01 12:52:51;;;;;;;6.28;3.78;;;5.10;93.40;;;;;;4984525;28;20408;-81
2021/01/01 12:55:16;;;;;;;7.18;4.07;;;5.10;92.70;;;;;;4989882;28;20038;-81
2021/01/01 12:57:42;;;;;;;11.00;3.78;;;5.10;93.60;;;;;;4983008;28;20042;-81
2021/01/01 13:00:08;;;;;;;7.63;4.13;;;5.10;92.10;;;;;;4983060;28;20104;-81
2021/01/01 13:02:33;;;;;;;7.65;4.40;;;4.90;91.60;;;;;;4981665;28;20090;-81
2021/01/01 13:04:59;;;;;;;8.65;4.43;;;4.80;91.90;;;;;;4979247;28;20434;-82
2021/01/01 13:07:25;;;;;;;7.90;4.22;;;4.80;92.00;;;;;;4981367;28;20057;-81
2021/01/01 13:09:50;;;;;;;5.75;3.38;;;4.80;94.50;;;;;;4979303;28;20522;-82
2021/01/01 13:12:16;;;;;;;7.30;3.97;;;4.80;93.20;;;;;;4987031;28;20038;-83
2021/01/01 13:14:43;;;;;;;6.13;3.75;;;4.80;93.20;;;;;;4980411;28;20039;-82
2021/01/01 13:17:08;;;;;;;7.50;4.25;;;4.80;93.60;;;;;;4977022;28;20509;-82
2021/01/01 13:19:34;;;;;;;8.77;4.78;;;4.60;92.50;;;;;;4978485;28;20034;-82
2021/01/01 13:21:59;;;;;;;10.65;4.47;;;4.60;92.60;;;;;;4985549;28;20034;-81
2021/01/01 13:24:25;;;;;;;7.25;4.03;;;4.60;93.40;;;;;;4983196;28;20367;-82
2021/01/01 13:26:50;;;;;;;7.35;4.35;;;4.60;92.30;;;;;;4987620;28;20031;-82
2021/01/01 13:29:16;;;;;;;7.25;4.22;;;4.70;92.80;;;;;;4976599;28;20113;-82
2021/01/01 13:31:43;;;;;;;7.57;4.43;;;4.80;92.50;;;;;;4988992;28;20102;-81
2021/01/01 13:34:10;;;;;;;7.97;4.15;;;4.80;92.50;;;;;;5001025;28;20039;-80
2021/01/01 13:36:36;;;;;;;8.55;4.65;;;4.90;92.80;;;;;;4999721;28;20035;-83
2021/01/01 13:39:02;;;;;;;8.20;4.70;;;4.90;92.70;;;;;;4982849;28;20038;-83
2021/01/01 13:41:28;;;;;;;9.73;4.93;;;4.80;91.90;;;;;;4989429;28;20031;-83
2021/01/01 13:43:55;;;;;;;9.60;4.82;;;4.80;92.50;;;;;;4986000;28;20041;-81
2021/01/01 13:46:23;;;;;;;10.60;4.78;;;4.80;93.40;;;;;;4995398;28;20026;-81
2021/01/01 13:48:50;;;;;;;9.90;5.53;;;4.90;92.70;;;;;;4984802;28;20065;-82
2021/01/01 13:51:16;;;;;;;8.02;4.80;;;4.90;91.90;;;;;;4979588;28;20031;-82
2021/01/01 13:53:41;;;;;;;9.68;5.00;;;5.00;92.20;;;;;;4985259;28;20090;-81
2021/01/01 13:56:07;;;;;;;10.15;4.68;;;4.80;92.00;;;;;;4987791;28;20049;-80